createdAt,value
2024-02-22T00:00:43.785Z,514.00
2024-02-22T00:01:43.885Z,514.00
2024-02-22T00:02:43.865Z,515.00
2024-02-22T00:03:43.932Z,515.00
2024-02-22T00:04:44.136Z,517.00
2024-02-22T00:05:44.119Z,515.00
2024-02-22T00:06:44.194Z,512.00
2024-02-22T00:07:44.150Z,511.00
2024-02-22T00:08:44.211Z,511.00
2024-02-22T00:09:44.224Z,506.00
2024-02-22T00:10:44.376Z,505.00
2024-02-22T00:11:44.396Z,508.00
2024-02-22T00:12:44.373Z,511.00
2024-02-22T00:13:44.490Z,513.00
2024-02-22T00:14:44.425Z,512.00
2024-02-22T00:15:44.481Z,513.00
2024-02-22T00:16:44.581Z,511.00
2024-02-22T00:17:44.585Z,508.00
2024-02-22T00:18:44.681Z,509.00
2024-02-22T00:19:44.630Z,509.00
2024-02-22T00:20:44.662Z,509.00
2024-02-22T00:21:44.706Z,508.00
2024-02-22T00:22:44.754Z,510.00
2024-02-22T00:23:44.800Z,511.00
2024-02-22T00:24:44.830Z,511.00
2024-02-22T00:25:44.932Z,511.00
2024-02-22T00:26:44.950Z,511.00
2024-02-22T00:27:44.953Z,511.00
2024-02-22T00:28:45.071Z,510.00
2024-02-22T00:29:45.071Z,508.00
2024-02-22T00:30:45.120Z,507.00
2024-02-22T00:31:45.197Z,508.00
2024-02-22T00:32:45.284Z,509.00
2024-02-22T00:33:45.303Z,511.00
2024-02-22T00:34:45.334Z,508.00
2024-02-22T00:35:45.335Z,506.00
2024-02-22T00:36:45.406Z,506.00
2024-02-22T00:37:45.496Z,507.00
2024-02-22T00:38:45.464Z,508.00
2024-02-22T00:39:45.508Z,509.00
2024-02-22T00:40:45.604Z,509.00
2024-02-22T00:41:45.624Z,510.00
2024-02-22T00:42:45.640Z,512.00
2024-02-22T00:43:45.704Z,513.00
2024-02-22T00:44:45.759Z,515.00
2024-02-22T00:45:45.775Z,516.00
2024-02-22T00:46:45.884Z,515.00
2024-02-22T00:47:45.946Z,516.00
2024-02-22T00:48:46.069Z,515.00
2024-02-22T00:49:46.068Z,515.00
2024-02-22T00:50:46.157Z,515.00
2024-02-22T00:51:46.109Z,512.00
2024-02-22T00:52:46.227Z,512.00
2024-02-22T00:53:46.216Z,514.00
2024-02-22T00:54:46.254Z,514.00
2024-02-22T00:55:46.387Z,514.00
2024-02-22T00:56:46.353Z,513.00
2024-02-22T00:57:46.417Z,513.00
2024-02-22T00:58:46.500Z,510.00
2024-02-22T00:59:46.627Z,510.00
2024-02-22T01:00:46.618Z,507.00
2024-02-22T01:01:46.731Z,506.00
2024-02-22T01:02:46.629Z,505.00
2024-02-22T01:03:46.751Z,506.00
2024-02-22T01:04:46.883Z,508.00
2024-02-22T01:05:46.865Z,509.00
2024-02-22T01:06:46.784Z,510.00
2024-02-22T01:07:46.932Z,508.00
2024-02-22T01:08:46.904Z,507.00
2024-02-22T01:09:46.971Z,509.00
2024-02-22T01:10:47.094Z,511.00
2024-02-22T01:11:47.165Z,509.00
2024-02-22T01:12:47.123Z,507.00
2024-02-22T01:13:47.143Z,506.00
2024-02-22T01:14:47.187Z,506.00
2024-02-22T01:15:47.241Z,504.00
2024-02-22T01:16:47.324Z,504.00
2024-02-22T01:17:47.368Z,504.00
2024-02-22T01:18:47.377Z,506.00
2024-02-22T01:19:47.388Z,507.00
2024-02-22T01:20:47.435Z,507.00
2024-02-22T01:21:47.518Z,508.00
2024-02-22T01:22:47.513Z,509.00
2024-02-22T01:23:47.566Z,509.00
2024-02-22T01:24:47.566Z,510.00
2024-02-22T01:25:47.697Z,510.00
2024-02-22T01:26:47.793Z,509.00
2024-02-22T01:27:47.762Z,510.00
2024-02-22T01:28:47.799Z,511.00
2024-02-22T01:29:47.909Z,510.00
2024-02-22T01:30:47.957Z,510.00
2024-02-22T01:31:47.936Z,511.00
2024-02-22T01:33:48.026Z,512.00
2024-02-22T01:34:48.096Z,514.00
2024-02-22T01:35:48.115Z,514.00
2024-02-22T01:36:48.149Z,514.00
2024-02-22T01:37:48.239Z,514.00
2024-02-22T01:38:48.257Z,511.00
2024-02-22T01:39:48.295Z,511.00
2024-02-22T01:40:48.423Z,511.00
2024-02-22T01:41:48.371Z,512.00
2024-02-22T01:42:48.445Z,514.00
2024-02-22T01:43:48.529Z,514.00
2024-02-22T01:44:48.535Z,515.00
2024-02-22T01:45:48.593Z,515.00
2024-02-22T01:46:48.699Z,516.00
2024-02-22T01:47:48.742Z,515.00
2024-02-22T01:48:48.839Z,514.00
2024-02-22T01:49:48.810Z,510.00
2024-02-22T01:50:48.794Z,510.00
2024-02-22T01:51:48.829Z,510.00
2024-02-22T01:52:48.906Z,509.00
2024-02-22T01:53:48.895Z,510.00
2024-02-22T01:54:49.018Z,509.00
2024-02-22T01:55:48.995Z,510.00
2024-02-22T01:56:49.086Z,510.00
2024-02-22T01:57:49.087Z,510.00
2024-02-22T01:58:49.264Z,510.00
2024-02-22T01:59:49.224Z,510.00
2024-02-22T02:00:49.312Z,510.00
2024-02-22T02:01:49.330Z,510.00
2024-02-22T02:02:49.481Z,513.00
2024-02-22T02:03:49.401Z,514.00
2024-02-22T02:04:49.492Z,512.00
2024-02-22T02:05:49.480Z,512.00
2024-02-22T02:06:49.541Z,511.00
2024-02-22T02:07:49.645Z,510.00
2024-02-22T02:08:49.537Z,512.00
2024-02-22T02:09:49.597Z,512.00
2024-02-22T02:10:49.681Z,514.00
2024-02-22T02:11:49.737Z,514.00
2024-02-22T02:12:49.701Z,512.00
2024-02-22T02:13:49.761Z,512.00
2024-02-22T02:14:49.761Z,512.00
2024-02-22T02:15:49.803Z,512.00
2024-02-22T02:16:49.870Z,511.00
2024-02-22T02:17:49.824Z,510.00
2024-02-22T02:18:49.909Z,510.00
2024-02-22T02:19:49.987Z,511.00
2024-02-22T02:20:49.946Z,511.00
2024-02-22T02:21:49.933Z,512.00
2024-02-22T02:22:49.993Z,512.00
2024-02-22T02:23:49.964Z,512.00
2024-02-22T02:24:49.981Z,511.00
2024-02-22T02:25:50.068Z,511.00
2024-02-22T02:26:50.082Z,513.00
2024-02-22T02:27:50.091Z,514.00
2024-02-22T02:28:50.104Z,518.00
2024-02-22T02:29:50.108Z,518.00
2024-02-22T02:30:50.064Z,518.00
2024-02-22T02:31:50.177Z,517.00
2024-02-22T02:32:50.196Z,516.00
2024-02-22T02:33:50.246Z,514.00
2024-02-22T02:34:50.170Z,511.00
2024-02-22T02:35:50.171Z,512.00
2024-02-22T02:36:50.238Z,515.00
2024-02-22T02:37:50.340Z,515.00
2024-02-22T02:38:50.269Z,515.00
2024-02-22T02:39:50.313Z,516.00
2024-02-22T02:40:50.391Z,516.00
2024-02-22T02:41:50.328Z,514.00
2024-02-22T02:42:50.392Z,513.00
2024-02-22T02:43:50.390Z,512.00
2024-02-22T02:44:50.408Z,512.00
2024-02-22T02:45:50.377Z,515.00
2024-02-22T02:46:50.457Z,515.00
2024-02-22T02:47:50.518Z,515.00
2024-02-22T02:48:50.567Z,515.00
2024-02-22T02:49:50.592Z,515.00
2024-02-22T02:50:50.549Z,515.00
2024-02-22T02:51:50.583Z,515.00
2024-02-22T02:52:50.679Z,516.00
2024-02-22T02:53:50.759Z,516.00
2024-02-22T02:54:50.750Z,518.00
2024-02-22T02:55:50.805Z,515.00
2024-02-22T02:56:50.863Z,512.00
2024-02-22T02:57:50.919Z,514.00
2024-02-22T02:58:50.969Z,514.00
2024-02-22T02:59:50.981Z,514.00
2024-02-22T03:00:51.050Z,515.00
2024-02-22T03:01:51.156Z,513.00
2024-02-22T03:02:51.140Z,513.00
2024-02-22T03:03:51.237Z,513.00
2024-02-22T03:04:51.347Z,513.00
2024-02-22T03:05:51.315Z,512.00
2024-02-22T03:06:51.304Z,512.00
2024-02-22T03:07:51.340Z,514.00
2024-02-22T03:08:51.388Z,514.00
2024-02-22T03:09:51.457Z,515.00
2024-02-22T03:10:51.590Z,514.00
2024-02-22T03:11:51.664Z,513.00
2024-02-22T03:12:51.626Z,512.00
2024-02-22T03:13:51.676Z,512.00
2024-02-22T03:14:51.721Z,511.00
2024-02-22T03:15:51.747Z,511.00
2024-02-22T03:16:51.801Z,511.00
2024-02-22T03:17:51.922Z,514.00
2024-02-22T03:18:51.929Z,517.00
2024-02-22T03:19:51.928Z,519.00
2024-02-22T03:20:51.983Z,518.00
2024-02-22T03:21:52.011Z,517.00
2024-02-22T03:22:52.063Z,516.00
2024-02-22T03:23:52.107Z,516.00
2024-02-22T03:24:52.106Z,518.00
2024-02-22T03:25:52.344Z,520.00
2024-02-22T03:26:52.239Z,523.00
2024-02-22T03:27:52.261Z,523.00
2024-02-22T03:28:52.354Z,523.00
2024-02-22T03:29:52.386Z,525.00
2024-02-22T03:30:52.373Z,522.00
2024-02-22T03:31:52.482Z,518.00
2024-02-22T03:32:52.520Z,517.00
2024-02-22T03:33:52.578Z,514.00
2024-02-22T03:34:52.628Z,516.00
2024-02-22T03:35:52.603Z,517.00
2024-02-22T03:36:52.648Z,518.00
2024-02-22T03:37:52.737Z,516.00
2024-02-22T03:38:52.720Z,517.00
2024-02-22T03:39:52.815Z,518.00
2024-02-22T03:40:52.896Z,519.00
2024-02-22T03:41:52.861Z,519.00
2024-02-22T03:42:52.933Z,519.00
2024-02-22T03:43:53.015Z,521.00
2024-02-22T03:44:53.052Z,517.00
2024-02-22T03:45:53.111Z,514.00
2024-02-22T03:46:53.205Z,513.00
2024-02-22T03:47:53.199Z,513.00
2024-02-22T03:48:53.260Z,514.00
2024-02-22T03:49:53.253Z,514.00
2024-02-22T03:50:53.289Z,515.00
2024-02-22T03:51:53.336Z,516.00
2024-02-22T03:52:53.370Z,519.00
2024-02-22T03:53:53.364Z,519.00
2024-02-22T03:54:53.390Z,520.00
2024-02-22T03:55:53.474Z,520.00
2024-02-22T03:56:53.470Z,521.00
2024-02-22T03:57:53.554Z,523.00
2024-02-22T03:58:53.593Z,524.00
2024-02-22T03:59:53.565Z,521.00
2024-02-22T04:00:53.677Z,518.00
2024-02-22T04:01:53.706Z,521.00
2024-02-22T04:02:53.694Z,521.00
2024-02-22T04:03:53.791Z,522.00
2024-02-22T04:04:53.842Z,521.00
2024-02-22T04:05:53.904Z,520.00
2024-02-22T04:06:53.949Z,519.00
2024-02-22T04:07:54.000Z,518.00
2024-02-22T04:08:54.030Z,518.00
2024-02-22T04:09:54.043Z,518.00
2024-02-22T04:10:54.136Z,517.00
2024-02-22T04:11:54.227Z,515.00
2024-02-22T04:12:54.228Z,517.00
2024-02-22T04:13:54.313Z,516.00
2024-02-22T04:14:54.317Z,516.00
2024-02-22T04:15:54.329Z,515.00
2024-02-22T04:16:54.473Z,514.00
2024-02-22T04:17:54.494Z,514.00
2024-02-22T04:18:54.493Z,513.00
2024-02-22T04:19:54.519Z,512.00
2024-02-22T04:20:54.476Z,513.00
2024-02-22T04:21:54.479Z,513.00
2024-02-22T04:22:54.617Z,512.00
2024-02-22T04:23:54.613Z,512.00
2024-02-22T04:24:54.667Z,511.00
2024-02-22T04:25:54.763Z,512.00
2024-02-22T04:26:54.767Z,512.00
2024-02-22T04:27:54.856Z,511.00
2024-02-22T04:28:54.851Z,513.00
2024-02-22T04:29:54.895Z,513.00
2024-02-22T04:30:54.961Z,515.00
2024-02-22T04:31:55.058Z,515.00
2024-02-22T04:32:55.126Z,512.00
2024-02-22T04:33:55.127Z,511.00
2024-02-22T04:34:55.248Z,515.00
2024-02-22T04:35:55.305Z,513.00
2024-02-22T04:36:55.238Z,514.00
2024-02-22T04:37:55.332Z,514.00
2024-02-22T04:38:55.385Z,515.00
2024-02-22T04:39:55.370Z,515.00
2024-02-22T04:40:55.488Z,516.00
2024-02-22T04:41:55.491Z,514.00
2024-02-22T04:42:55.499Z,514.00
2024-02-22T04:43:55.580Z,515.00
2024-02-22T04:44:55.605Z,513.00
2024-02-22T04:45:55.719Z,514.00
2024-02-22T04:46:55.791Z,516.00
2024-02-22T04:47:55.735Z,517.00
2024-02-22T04:48:55.825Z,513.00
2024-02-22T04:49:55.894Z,515.00
2024-02-22T04:50:55.912Z,517.00
2024-02-22T04:51:55.976Z,517.00
2024-02-22T04:52:56.052Z,516.00
2024-02-22T04:53:56.069Z,515.00
2024-02-22T04:55:03.871Z,531.00
2024-02-22T04:56:03.893Z,527.00
2024-02-22T04:57:03.834Z,525.00
2024-02-22T04:58:03.972Z,524.00
2024-02-22T04:59:03.918Z,522.00
2024-02-22T05:00:03.860Z,521.00
2024-02-22T05:01:03.960Z,521.00
2024-02-22T05:02:03.891Z,521.00
2024-02-22T05:03:03.886Z,519.00
2024-02-22T05:04:03.972Z,520.00
2024-02-22T05:05:03.924Z,520.00
2024-02-22T05:06:03.927Z,519.00
2024-02-22T05:07:03.893Z,519.00
2024-02-22T05:08:03.973Z,520.00
2024-02-22T05:09:03.941Z,521.00
2024-02-22T05:10:03.875Z,522.00
2024-02-22T05:11:03.977Z,520.00
2024-02-22T05:12:03.942Z,521.00
2024-02-22T05:13:03.923Z,519.00
2024-02-22T05:14:03.921Z,520.00
2024-02-22T05:15:03.882Z,520.00
2024-02-22T05:16:03.894Z,520.00
2024-02-22T05:17:03.966Z,517.00
2024-02-22T05:18:04.031Z,518.00
2024-02-22T05:19:03.959Z,517.00
2024-02-22T05:20:03.934Z,518.00
2024-02-22T05:21:03.917Z,518.00
2024-02-22T05:22:03.918Z,517.00
2024-02-22T05:23:03.944Z,519.00
2024-02-22T05:24:03.909Z,522.00
2024-02-22T05:25:03.900Z,521.00
2024-02-22T05:26:03.971Z,518.00
2024-02-22T05:27:03.940Z,520.00
2024-02-22T05:28:03.923Z,520.00
2024-02-22T05:29:03.923Z,517.00
2024-02-22T05:30:03.910Z,514.00
2024-02-22T05:31:03.916Z,513.00
2024-02-22T05:32:03.979Z,513.00
2024-02-22T05:33:03.993Z,515.00
2024-02-22T05:34:03.934Z,517.00
2024-02-22T05:35:04.022Z,522.00
2024-02-22T05:36:03.920Z,522.00
2024-02-22T05:37:03.930Z,519.00
2024-02-22T05:38:03.979Z,517.00
2024-02-22T05:39:03.938Z,516.00
2024-02-22T05:40:03.931Z,514.00
2024-02-22T05:41:03.997Z,516.00
2024-02-22T05:42:03.940Z,513.00
2024-02-22T05:43:03.923Z,514.00
2024-02-22T05:44:03.943Z,512.00
2024-02-22T05:45:03.930Z,513.00
2024-02-22T05:46:03.964Z,513.00
2024-02-22T05:47:03.956Z,514.00
2024-02-22T05:48:04.099Z,512.00
2024-02-22T05:49:04.272Z,513.00
2024-02-22T05:50:04.111Z,512.00
2024-02-22T05:51:04.136Z,511.00
2024-02-22T05:52:04.162Z,510.00
2024-02-22T05:53:04.658Z,509.00
2024-02-22T05:54:04.273Z,508.00
2024-02-22T05:55:04.294Z,508.00
2024-02-22T05:56:04.405Z,507.00
2024-02-22T05:57:04.427Z,508.00
2024-02-22T05:58:04.467Z,507.00
2024-02-22T05:59:04.609Z,507.00
2024-02-22T06:00:04.580Z,510.00
2024-02-22T06:01:27.166Z,510.00
2024-02-22T06:02:04.756Z,506.00
2024-02-22T06:03:07.927Z,507.00
2024-02-22T06:04:05.720Z,507.00
2024-02-22T06:05:04.705Z,508.00
2024-02-22T06:06:04.651Z,511.00
2024-02-22T06:07:04.674Z,509.00
2024-02-22T06:08:04.686Z,511.00
2024-02-22T06:09:04.643Z,512.00
2024-02-22T06:10:04.631Z,510.00
2024-02-22T06:11:04.717Z,510.00
2024-02-22T06:12:04.704Z,509.00
2024-02-22T06:13:04.643Z,510.00
2024-02-22T06:14:04.648Z,509.00
2024-02-22T06:15:04.703Z,509.00
2024-02-22T06:16:04.723Z,507.00
2024-02-22T06:17:04.822Z,504.00
2024-02-22T06:19:04.973Z,504.00
2024-02-22T06:20:04.938Z,505.00
2024-02-22T06:21:04.982Z,505.00
2024-02-22T06:22:05.014Z,505.00
2024-02-22T06:23:05.103Z,506.00
2024-02-22T06:24:05.117Z,503.00
2024-02-22T06:25:05.165Z,502.00
2024-02-22T06:26:05.353Z,501.00
2024-02-22T06:27:05.254Z,502.00
2024-02-22T06:28:05.327Z,504.00
2024-02-22T06:29:05.437Z,505.00
2024-02-22T06:30:05.390Z,506.00
2024-02-22T06:31:05.513Z,505.00
2024-02-22T06:32:05.536Z,507.00
2024-02-22T06:33:05.772Z,508.00
2024-02-22T06:34:06.099Z,509.00
2024-02-22T06:35:05.708Z,511.00
2024-02-22T06:36:05.723Z,515.00
2024-02-22T06:37:05.786Z,517.00
2024-02-22T06:38:05.928Z,528.00
2024-02-22T06:39:06.040Z,541.00
2024-02-22T06:40:05.908Z,609.00
2024-02-22T06:41:06.060Z,676.00
2024-02-22T06:42:06.119Z,688.00
2024-02-22T06:43:06.072Z,713.00
2024-02-22T06:44:06.605Z,788.00
2024-02-22T06:45:06.202Z,857.00
2024-02-22T06:46:28.774Z,904.00
2024-02-22T06:47:06.293Z,894.00
2024-02-22T06:48:06.345Z,896.00
2024-02-22T06:49:06.627Z,906.00
2024-02-22T06:50:06.413Z,1005.00
2024-02-22T06:51:07.291Z,1011.00
2024-02-22T06:52:06.309Z,890.00
2024-02-22T06:53:06.268Z,907.00
2024-02-22T06:54:06.579Z,912.00
2024-02-22T06:55:06.298Z,896.00
2024-02-22T06:56:06.285Z,931.00
2024-02-22T06:57:06.228Z,964.00
2024-02-22T06:58:06.305Z,948.00
2024-02-22T06:59:06.651Z,965.00
2024-02-22T07:00:06.346Z,999.00
2024-02-22T07:01:06.272Z,979.00
2024-02-22T07:02:06.332Z,923.00
2024-02-22T07:03:06.546Z,922.00
2024-02-22T07:04:06.649Z,918.00
2024-02-22T07:05:06.558Z,969.00
2024-02-22T07:06:06.392Z,1017.00
2024-02-22T07:07:06.480Z,949.00
2024-02-22T07:08:06.584Z,938.00
2024-02-22T07:09:06.589Z,950.00
2024-02-22T07:10:06.582Z,955.00
2024-02-22T07:11:06.755Z,986.00
2024-02-22T07:12:06.817Z,961.00
2024-02-22T07:13:06.789Z,968.00
2024-02-22T07:14:07.272Z,953.00
2024-02-22T07:15:06.848Z,952.00
2024-02-22T07:16:06.914Z,916.00
2024-02-22T07:17:07.031Z,913.00
2024-02-22T07:18:07.128Z,913.00
2024-02-22T07:19:07.163Z,912.00
2024-02-22T07:20:07.322Z,926.00
2024-02-22T07:21:07.169Z,974.00
2024-02-22T07:22:07.165Z,1015.00
2024-02-22T07:23:07.374Z,1028.00
2024-02-22T07:24:07.277Z,1028.00
2024-02-22T07:25:07.598Z,1031.00
2024-02-22T07:26:07.420Z,1024.00
2024-02-22T07:27:07.444Z,1023.00
2024-02-22T07:28:07.513Z,1029.00
2024-02-22T07:29:11.555Z,991.00
2024-02-22T07:30:08.571Z,1029.00
2024-02-22T07:31:07.528Z,1009.00
2024-02-22T07:32:07.584Z,948.00
2024-02-22T07:33:07.620Z,939.00
2024-02-22T07:34:07.590Z,920.00
2024-02-22T07:35:07.656Z,911.00
2024-02-22T07:36:10.492Z,972.00
2024-02-22T07:37:07.576Z,995.00
2024-02-22T07:38:07.622Z,1001.00
2024-02-22T07:39:07.639Z,774.00
2024-02-22T07:40:07.618Z,960.00
2024-02-22T07:41:07.580Z,950.00
2024-02-22T07:42:07.620Z,926.00
2024-02-22T07:43:07.583Z,856.00
2024-02-22T07:44:10.954Z,865.00
2024-02-22T07:45:07.572Z,859.00
2024-02-22T07:46:07.590Z,850.00
2024-02-22T07:47:07.630Z,843.00
2024-02-22T07:48:07.658Z,806.00
2024-02-22T07:49:07.752Z,773.00
2024-02-22T07:50:07.672Z,762.00
2024-02-22T07:51:07.576Z,752.00
2024-02-22T07:52:07.593Z,724.00
2024-02-22T07:53:07.660Z,694.00
2024-02-22T07:54:07.603Z,681.00
2024-02-22T07:55:07.628Z,685.00
2024-02-22T07:56:07.718Z,653.00
2024-02-22T07:57:07.615Z,661.00
2024-02-22T07:58:07.662Z,656.00
2024-02-22T07:59:07.614Z,654.00
2024-02-22T08:00:07.632Z,651.00
2024-02-22T08:01:07.617Z,648.00
2024-02-22T08:02:07.650Z,641.00
2024-02-22T08:03:07.579Z,619.00
2024-02-22T08:04:07.598Z,615.00
2024-02-22T08:05:07.727Z,610.00
2024-02-22T08:06:07.632Z,610.00
2024-02-22T08:07:07.681Z,608.00
2024-02-22T08:08:07.658Z,603.00
2024-02-22T08:09:07.588Z,597.00
2024-02-22T08:10:07.607Z,593.00
2024-02-22T08:11:07.724Z,588.00
2024-02-22T08:12:07.728Z,580.00
2024-02-22T08:13:07.630Z,577.00
2024-02-22T08:14:07.650Z,576.00
2024-02-22T08:15:08.265Z,571.00
2024-02-22T08:16:07.633Z,571.00
2024-02-22T08:17:07.643Z,623.00
2024-02-22T08:18:07.658Z,642.00
2024-02-22T08:19:07.607Z,641.00
2024-02-22T08:20:07.765Z,658.00
2024-02-22T08:21:07.698Z,718.00
2024-02-22T08:22:07.632Z,709.00
2024-02-22T08:23:07.709Z,666.00
2024-02-22T08:24:07.661Z,667.00
2024-02-22T08:25:07.648Z,659.00
2024-02-22T08:26:07.693Z,652.00
2024-02-22T08:27:07.678Z,644.00
2024-02-22T08:28:08.226Z,643.00
2024-02-22T08:29:07.650Z,641.00
2024-02-22T08:30:08.103Z,635.00
2024-02-22T08:31:07.645Z,634.00
2024-02-22T08:32:08.722Z,678.00
2024-02-22T08:33:07.772Z,692.00
2024-02-22T08:34:07.888Z,730.00
2024-02-22T08:35:07.803Z,682.00
2024-02-22T08:36:07.779Z,584.00
2024-02-22T08:37:07.842Z,702.00
2024-02-22T08:38:07.890Z,757.00
2024-02-22T08:39:07.903Z,795.00
2024-02-22T08:40:19.908Z,877.00
2024-02-22T08:41:08.981Z,910.00
2024-02-22T08:42:07.925Z,785.00
2024-02-22T08:43:07.932Z,888.00
2024-02-22T08:44:07.997Z,903.00
2024-02-22T08:45:07.965Z,905.00
2024-02-22T08:46:07.958Z,910.00
2024-02-22T08:47:08.014Z,914.00
2024-02-22T08:48:08.113Z,780.00
2024-02-22T08:49:08.052Z,809.00
2024-02-22T08:50:08.218Z,726.00
2024-02-22T08:51:08.540Z,696.00
2024-02-22T08:52:08.099Z,672.00
2024-02-22T08:53:08.885Z,667.00
2024-02-22T08:54:08.046Z,658.00
2024-02-22T08:55:07.974Z,614.00
2024-02-22T08:56:08.035Z,605.00
2024-02-22T08:57:08.045Z,614.00
2024-02-22T08:58:08.034Z,627.00
2024-02-22T08:59:08.134Z,646.00
2024-02-22T09:00:08.086Z,661.00
2024-02-22T09:01:08.251Z,663.00
2024-02-22T09:02:08.312Z,655.00
2024-02-22T09:03:08.269Z,668.00
2024-02-22T09:04:08.277Z,716.00
2024-02-22T09:05:08.659Z,730.00
2024-02-22T09:06:08.467Z,737.00
2024-02-22T09:07:08.533Z,735.00
2024-02-22T09:08:08.564Z,738.00
2024-02-22T09:09:08.617Z,742.00
2024-02-22T09:10:08.510Z,741.00
2024-02-22T09:11:08.639Z,755.00
2024-02-22T09:12:08.673Z,701.00
2024-02-22T09:13:08.648Z,726.00
2024-02-22T09:14:08.648Z,751.00
2024-02-22T09:15:08.712Z,784.00
2024-02-22T09:16:08.720Z,807.00
2024-02-22T09:17:08.788Z,823.00
2024-02-22T09:18:08.867Z,808.00
2024-02-22T09:19:08.837Z,814.00
2024-02-22T09:20:08.916Z,829.00
2024-02-22T09:21:08.838Z,856.00
2024-02-22T09:22:08.831Z,819.00
2024-02-22T09:23:08.938Z,883.00
2024-02-22T09:24:08.946Z,889.00
2024-02-22T09:25:08.989Z,882.00
2024-02-22T09:26:09.096Z,891.00
2024-02-22T09:27:09.076Z,904.00
2024-02-22T09:28:09.633Z,910.00
2024-02-22T09:29:09.206Z,918.00
2024-02-22T09:30:09.217Z,768.00
2024-02-22T09:31:09.663Z,885.00
2024-02-22T09:32:09.350Z,883.00
2024-02-22T09:33:09.530Z,890.00
2024-02-22T09:34:09.668Z,887.00
2024-02-22T09:35:09.528Z,822.00
2024-02-22T09:36:09.816Z,824.00
2024-02-22T09:37:09.479Z,764.00
2024-02-22T09:38:09.626Z,764.00
2024-02-22T09:39:09.559Z,768.00
2024-02-22T09:40:09.597Z,755.00
2024-02-22T09:41:09.712Z,741.00
2024-02-22T09:42:09.647Z,725.00
2024-02-22T09:43:09.722Z,705.00
2024-02-22T09:44:09.839Z,666.00
2024-02-22T09:45:09.739Z,666.00
2024-02-22T09:46:09.808Z,672.00
2024-02-22T09:47:09.908Z,666.00
2024-02-22T09:48:09.929Z,648.00
2024-02-22T09:49:09.905Z,633.00
2024-02-22T09:50:09.944Z,630.00
2024-02-22T09:51:10.133Z,626.00
2024-02-22T09:52:09.954Z,705.00
2024-02-22T09:53:10.031Z,639.00
2024-02-22T09:54:10.008Z,608.00
2024-02-22T09:55:10.066Z,697.00
2024-02-22T09:56:10.133Z,687.00
2024-02-22T09:57:10.318Z,638.00
2024-02-22T09:58:10.178Z,656.00
2024-02-22T09:59:10.266Z,687.00
2024-02-22T10:00:10.295Z,660.00
2024-02-22T10:01:10.722Z,647.00
2024-02-22T10:02:10.394Z,702.00
2024-02-22T10:03:12.249Z,672.00
2024-02-22T10:04:10.477Z,654.00
2024-02-22T10:05:10.744Z,599.00
2024-02-22T10:06:10.713Z,586.00
2024-02-22T10:07:10.647Z,584.00
2024-02-22T10:08:10.734Z,589.00
2024-02-22T10:09:10.752Z,587.00
2024-02-22T10:10:10.776Z,552.00
2024-02-22T10:11:10.924Z,545.00
2024-02-22T10:12:11.133Z,538.00
2024-02-22T10:13:12.010Z,535.00
2024-02-22T10:14:11.076Z,538.00
2024-02-22T10:15:11.225Z,537.00
2024-02-22T10:16:11.032Z,534.00
2024-02-22T10:17:11.125Z,531.00
2024-02-22T10:18:11.204Z,527.00
2024-02-22T10:19:11.267Z,525.00
2024-02-22T10:20:11.807Z,524.00
2024-02-22T10:21:12.629Z,523.00
2024-02-22T10:22:11.306Z,525.00
2024-02-22T10:23:11.593Z,523.00
2024-02-22T10:24:11.418Z,519.00
2024-02-22T10:25:11.482Z,517.00
2024-02-22T10:26:11.541Z,516.00
2024-02-22T10:27:11.623Z,515.00
2024-02-22T10:28:11.660Z,513.00
2024-02-22T10:29:11.697Z,509.00
2024-02-22T10:30:11.766Z,508.00
2024-02-22T10:31:11.740Z,508.00
2024-02-22T10:32:11.796Z,506.00
2024-02-22T10:33:11.871Z,505.00
2024-02-22T10:34:11.903Z,504.00
2024-02-22T10:35:11.902Z,504.00
2024-02-22T10:36:12.207Z,506.00
2024-02-22T10:37:11.898Z,506.00
2024-02-22T10:38:11.954Z,504.00
2024-02-22T10:39:11.966Z,503.00
2024-02-22T10:40:12.007Z,504.00
2024-02-22T10:41:12.270Z,501.00
2024-02-22T10:42:12.148Z,503.00
2024-02-22T10:43:12.083Z,507.00
2024-02-22T10:44:12.163Z,506.00
2024-02-22T10:45:12.654Z,507.00
2024-02-22T10:46:12.157Z,510.00
2024-02-22T10:47:12.211Z,508.00
2024-02-22T10:48:12.271Z,509.00
2024-02-22T10:49:12.417Z,511.00
2024-02-22T10:50:12.246Z,507.00
2024-02-22T10:51:15.211Z,506.00
2024-02-22T10:52:12.708Z,506.00
2024-02-22T10:53:12.349Z,504.00
2024-02-22T10:54:12.306Z,503.00
2024-02-22T10:55:12.247Z,502.00
2024-02-22T10:56:12.327Z,500.00
2024-02-22T10:57:12.323Z,499.00
2024-02-22T10:58:12.293Z,499.00
2024-02-22T10:59:12.287Z,497.00
2024-02-22T11:00:13.296Z,505.00
2024-02-22T11:01:12.428Z,508.00
2024-02-22T11:02:12.380Z,509.00
2024-02-22T11:03:12.303Z,507.00
2024-02-22T11:04:12.360Z,510.00
2024-02-22T11:05:12.528Z,508.00
2024-02-22T11:06:12.253Z,507.00
2024-02-22T11:07:12.319Z,505.00
2024-02-22T11:08:12.341Z,503.00
2024-02-22T11:09:12.259Z,503.00
2024-02-22T11:10:12.321Z,502.00
2024-02-22T11:11:12.358Z,502.00
2024-02-22T11:12:12.715Z,502.00
2024-02-22T11:13:12.272Z,503.00
2024-02-22T11:14:12.329Z,502.00
2024-02-22T11:15:12.322Z,498.00
2024-02-22T11:16:12.312Z,497.00
2024-02-22T11:17:12.734Z,494.00
2024-02-22T11:18:12.433Z,490.00
2024-02-22T11:19:12.350Z,490.00
2024-02-22T11:20:12.408Z,488.00
2024-02-22T11:21:12.288Z,488.00
2024-02-22T11:22:12.310Z,491.00
2024-02-22T11:23:12.433Z,495.00
2024-02-22T11:24:12.420Z,498.00
2024-02-22T11:25:12.347Z,498.00
2024-02-22T11:26:12.341Z,500.00
2024-02-22T11:27:12.660Z,501.00
2024-02-22T11:28:12.379Z,502.00
2024-02-22T11:29:12.589Z,501.00
2024-02-22T11:30:12.410Z,500.00
2024-02-22T11:31:12.470Z,501.00
2024-02-22T11:32:12.551Z,558.00
2024-02-22T11:33:12.656Z,574.00
2024-02-22T11:34:12.665Z,576.00
2024-02-22T11:35:12.670Z,582.00
2024-02-22T11:36:12.638Z,588.00
2024-02-22T11:37:13.353Z,586.00
2024-02-22T11:38:12.954Z,589.00
2024-02-22T11:39:12.935Z,631.00
2024-02-22T11:40:12.986Z,642.00
2024-02-22T11:41:13.063Z,690.00
2024-02-22T11:42:13.247Z,696.00
2024-02-22T11:43:13.099Z,712.00
2024-02-22T11:44:13.311Z,762.00
2024-02-22T11:45:13.237Z,741.00
2024-02-22T11:46:13.372Z,756.00
2024-02-22T11:47:13.342Z,754.00
2024-02-22T11:48:13.409Z,843.00
2024-02-22T11:49:13.479Z,820.00
2024-02-22T11:50:13.495Z,813.00
2024-02-22T11:51:15.208Z,798.00
2024-02-22T11:52:13.526Z,803.00
2024-02-22T11:53:13.669Z,814.00
2024-02-22T11:54:13.649Z,810.00
2024-02-22T11:55:13.708Z,810.00
2024-02-22T11:56:13.756Z,816.00
2024-02-22T11:57:15.196Z,815.00
2024-02-22T11:58:13.781Z,853.00
2024-02-22T11:59:13.865Z,864.00
2024-02-22T12:00:13.815Z,847.00
2024-02-22T12:01:13.916Z,842.00
2024-02-22T12:02:14.900Z,850.00
2024-02-22T12:03:15.332Z,833.00
2024-02-22T12:04:13.939Z,835.00
2024-02-22T12:05:14.168Z,837.00
2024-02-22T12:06:14.132Z,874.00
2024-02-22T12:07:14.442Z,889.00
2024-02-22T12:08:14.106Z,880.00
2024-02-22T12:09:15.400Z,858.00
2024-02-22T12:10:14.116Z,850.00
2024-02-22T12:11:14.276Z,856.00
2024-02-22T12:12:14.278Z,863.00
2024-02-22T12:13:14.211Z,875.00
2024-02-22T12:14:14.237Z,891.00
2024-02-22T12:15:16.420Z,878.00
2024-02-22T12:16:14.293Z,893.00
2024-02-22T12:17:14.283Z,906.00
2024-02-22T12:18:14.286Z,907.00
2024-02-22T12:19:14.292Z,907.00
2024-02-22T12:20:14.472Z,892.00
2024-02-22T12:21:14.253Z,891.00
2024-02-22T12:22:14.790Z,893.00
2024-02-22T12:23:14.250Z,877.00
2024-02-22T12:24:14.244Z,862.00
2024-02-22T12:25:14.268Z,867.00
2024-02-22T12:26:14.247Z,877.00
2024-02-22T12:27:16.118Z,963.00
2024-02-22T12:28:14.223Z,998.00
2024-02-22T12:29:14.307Z,1010.00
2024-02-22T12:30:14.249Z,947.00
2024-02-22T12:31:14.396Z,938.00